createdAt,value
2023-04-19T00:00:17.101Z,71.56
2023-04-19T00:03:20.218Z,71.17
2023-04-19T00:06:23.430Z,71.74
2023-04-19T00:09:26.427Z,71.91
2023-04-19T00:12:28.993Z,72.91
2023-04-19T00:15:31.913Z,72.55
2023-04-19T00:18:34.539Z,72.71
2023-04-19T00:21:37.445Z,72.53
2023-04-19T00:24:40.100Z,73.13
2023-04-19T00:27:42.937Z,72.56
2023-04-19T00:30:45.676Z,71.90
2023-04-19T00:33:48.619Z,73.08
2023-04-19T00:36:51.113Z,72.03
2023-04-19T00:39:53.957Z,72.61
2023-04-19T00:42:56.477Z,73.30
2023-04-19T00:45:59.551Z,72.03
2023-04-19T00:49:02.491Z,72.87
2023-04-19T00:52:06.376Z,71.66
2023-04-19T00:55:09.068Z,72.11
2023-04-19T00:58:11.986Z,71.95
2023-04-19T01:01:14.635Z,73.11
2023-04-19T01:04:17.951Z,73.65
2023-04-19T01:07:22.692Z,73.98
2023-04-19T01:10:25.757Z,73.26
2023-04-19T01:13:29.158Z,74.09
2023-04-19T01:16:33.506Z,72.59
2023-04-19T01:19:37.156Z,73.70
2023-04-19T01:22:40.283Z,73.73
2023-04-19T01:25:42.986Z,73.15
2023-04-19T01:28:46.028Z,72.78
2023-04-19T01:31:53.614Z,72.36
2023-04-19T01:34:56.781Z,72.08
2023-04-19T01:37:59.474Z,72.57
2023-04-19T01:41:02.482Z,72.35
2023-04-19T01:44:07.109Z,70.57
2023-04-19T01:47:10.025Z,69.88
2023-04-19T01:50:12.778Z,70.41
2023-04-19T01:53:15.734Z,69.16
2023-04-19T01:56:18.544Z,70.01
2023-04-19T01:59:21.415Z,69.64
2023-04-19T02:02:24.169Z,69.22
2023-04-19T02:05:27.259Z,70.00
2023-04-19T02:08:29.809Z,68.17
2023-04-19T02:11:32.745Z,69.59
2023-04-19T02:14:35.650Z,69.56
2023-04-19T02:17:39.038Z,71.02
2023-04-19T02:20:41.860Z,70.72
2023-04-19T02:23:45.766Z,70.56
2023-04-19T02:26:48.799Z,70.03
2023-04-19T02:29:51.656Z,70.90
2023-04-19T02:32:55.114Z,71.42
2023-04-19T02:35:58.106Z,70.92
2023-04-19T02:39:02.659Z,69.99
2023-04-19T02:42:05.825Z,70.07
2023-04-19T02:45:09.035Z,70.75
2023-04-19T02:48:11.942Z,71.08
2023-04-19T02:51:16.805Z,71.44
2023-04-19T02:54:19.573Z,71.59
2023-04-19T02:57:22.828Z,71.36
2023-04-19T03:00:25.698Z,71.13
2023-04-19T03:03:28.928Z,70.75
2023-04-19T03:06:32.061Z,71.28
2023-04-19T03:09:34.535Z,69.58
2023-04-19T03:12:37.508Z,69.56
2023-04-19T03:15:40.062Z,71.10
2023-04-19T03:18:43.254Z,70.28
2023-04-19T03:21:46.581Z,70.12
2023-04-19T03:24:49.491Z,70.20
2023-04-19T03:27:52.760Z,70.19
2023-04-19T03:30:57.365Z,69.67
2023-04-19T03:34:00.152Z,70.10
2023-04-19T03:37:03.643Z,69.92
2023-04-19T03:40:07.029Z,70.03
2023-04-19T03:43:10.143Z,70.92
2023-04-19T03:46:12.720Z,71.57
2023-04-19T03:49:16.545Z,71.72
2023-04-19T03:52:19.687Z,72.12
2023-04-19T03:55:22.891Z,72.10
2023-04-19T03:58:26.150Z,73.02
2023-04-19T04:01:29.714Z,70.13
2023-04-19T04:04:32.809Z,69.17
2023-04-19T04:07:35.935Z,70.07
2023-04-19T04:10:39.385Z,70.53
2023-04-19T04:13:43.266Z,70.56
2023-04-19T04:16:46.843Z,70.58
2023-04-19T04:19:50.930Z,72.36
2023-04-19T04:22:54.418Z,73.00
2023-04-19T04:26:01.114Z,74.18
2023-04-19T04:29:06.534Z,74.98
2023-04-19T04:32:10.600Z,75.41
2023-04-19T04:35:14.013Z,75.07
2023-04-19T04:38:24.516Z,74.29
2023-04-19T04:41:31.544Z,73.84
2023-04-19T04:44:38.974Z,73.63
2023-04-19T04:47:42.103Z,74.24
2023-04-19T04:50:46.253Z,74.29
2023-04-19T04:53:49.398Z,74.35
2023-04-19T04:56:52.134Z,75.06
2023-04-19T04:59:56.441Z,75.95
2023-04-19T05:03:00.084Z,76.55
2023-04-19T05:06:04.192Z,76.10
2023-04-19T05:09:08.027Z,77.73
2023-04-19T05:12:11.098Z,78.20
2023-04-19T05:15:13.809Z,75.41
2023-04-19T05:18:18.616Z,74.07
2023-04-19T05:21:22.067Z,74.01
2023-04-19T05:24:25.306Z,72.38
2023-04-19T05:27:29.170Z,73.77
2023-04-19T05:30:32.256Z,73.09
2023-04-19T05:33:35.913Z,72.92
2023-04-19T05:36:39.838Z,72.47
2023-04-19T05:39:44.390Z,73.21
2023-04-19T05:42:47.751Z,73.37
2023-04-19T05:45:50.276Z,74.42
2023-04-19T05:48:53.355Z,74.00
2023-04-19T05:51:57.267Z,74.81
2023-04-19T05:55:01.529Z,73.27
2023-04-19T05:58:04.578Z,74.65
2023-04-19T06:01:07.547Z,73.69
2023-04-19T06:04:10.691Z,73.15
2023-04-19T06:07:27.381Z,74.00
2023-04-19T06:10:51.412Z,73.37
2023-04-19T06:13:56.974Z,73.68
2023-04-19T06:16:59.798Z,73.48
2023-04-19T06:20:02.413Z,72.71
2023-04-19T06:23:06.345Z,73.24
2023-04-19T06:26:08.893Z,72.73
2023-04-19T06:29:12.018Z,70.89
2023-04-19T06:32:14.702Z,69.37
2023-04-19T06:35:17.591Z,70.59
2023-04-19T06:38:20.138Z,69.88
2023-04-19T06:41:23.175Z,66.33
2023-04-19T06:44:25.849Z,65.90
2023-04-19T06:47:29.506Z,67.29
2023-04-19T06:50:32.330Z,67.64
2023-04-19T06:53:35.794Z,67.00
2023-04-19T06:56:49.171Z,65.81
2023-04-19T06:59:54.014Z,65.95
2023-04-19T07:02:56.731Z,65.77
2023-04-19T07:05:59.755Z,63.93
2023-04-19T07:09:03.725Z,64.13
2023-04-19T07:12:06.904Z,65.81
2023-04-19T07:15:09.985Z,64.16
2023-04-19T07:18:14.998Z,62.07
2023-04-19T07:21:17.486Z,62.26
2023-04-19T07:24:20.567Z,61.96
2023-04-19T07:27:23.121Z,60.90
2023-04-19T07:30:26.141Z,57.45
2023-04-19T07:33:28.744Z,56.58
2023-04-19T07:36:31.906Z,57.52
2023-04-19T07:39:34.407Z,57.70
2023-04-19T07:42:37.231Z,56.34
2023-04-19T07:45:40.544Z,53.42
2023-04-19T07:48:43.473Z,53.46
2023-04-19T07:51:46.131Z,52.34
2023-04-19T07:54:49.016Z,49.17
2023-04-19T07:57:51.633Z,50.60
2023-04-19T08:00:54.538Z,48.88
2023-04-19T08:03:57.980Z,44.99
2023-04-19T08:07:00.644Z,47.23
2023-04-19T08:10:04.122Z,44.48
2023-04-19T08:13:07.020Z,47.39
2023-04-19T08:19:15.491Z,48.13
2023-04-19T08:22:18.293Z,49.29
2023-04-19T08:25:23.608Z,47.91
2023-04-19T08:28:26.422Z,47.39
2023-04-19T08:31:29.072Z,47.79
2023-04-19T08:34:32.076Z,47.86
2023-04-19T08:37:34.617Z,46.66
2023-04-19T08:40:43.151Z,45.24
2023-04-19T08:43:48.731Z,44.75
2023-04-19T08:46:51.866Z,41.09
2023-04-19T08:50:08.738Z,39.83
2023-04-19T08:53:24.879Z,42.21
2023-04-19T08:56:35.278Z,37.90
2023-04-19T08:59:39.486Z,37.43
2023-04-19T09:02:48.305Z,41.68
2023-04-19T09:05:51.698Z,39.21
2023-04-19T09:12:27.094Z,39.03
2023-04-19T09:15:41.705Z,40.09
2023-04-19T09:19:08.214Z,39.48
2023-04-19T09:22:18.837Z,38.64
2023-04-19T09:25:43.728Z,38.11
2023-04-19T09:29:02.685Z,39.61
2023-04-19T09:32:06.153Z,40.50
2023-04-19T09:35:09.145Z,40.39
2023-04-19T09:38:12.100Z,40.06
2023-04-19T09:41:17.557Z,38.80
2023-04-19T09:44:53.082Z,36.41
2023-04-19T09:47:43.840Z,34.46
2023-04-19T09:51:03.225Z,36.81
2023-04-19T09:54:10.424Z,36.41
2023-04-19T09:57:13.357Z,36.62
2023-04-19T10:00:16.218Z,38.91
2023-04-19T10:03:20.338Z,40.61
2023-04-19T10:09:29.020Z,38.82
2023-04-19T10:12:58.527Z,36.76
2023-04-19T10:15:59.330Z,40.34
2023-04-19T10:19:12.402Z,34.58
2023-04-19T10:22:15.687Z,34.59
2023-04-19T10:25:18.645Z,35.00
2023-04-19T10:28:21.530Z,34.04
2023-04-19T10:31:26.357Z,32.39
2023-04-19T10:34:37.732Z,33.91
2023-04-19T10:37:43.580Z,35.90
2023-04-19T10:40:52.915Z,34.41
2023-04-19T10:43:55.433Z,36.47
2023-04-19T10:46:59.532Z,37.71
2023-04-19T10:50:04.947Z,38.00
2023-04-19T10:53:52.010Z,37.38
2023-04-19T10:57:05.781Z,38.28
2023-04-19T11:00:22.284Z,39.80
2023-04-19T11:03:43.444Z,41.71
2023-04-19T11:06:55.326Z,40.78
2023-04-19T11:09:58.441Z,42.13
2023-04-19T11:13:01.468Z,41.28
2023-04-19T11:16:10.692Z,42.67
2023-04-19T11:19:20.157Z,41.32
2023-04-19T11:22:26.977Z,42.93
2023-04-19T11:25:31.724Z,42.79
2023-04-19T11:28:34.331Z,41.83
2023-04-19T11:31:37.269Z,40.70
2023-04-19T11:34:40.715Z,42.93
2023-04-19T11:37:43.659Z,41.33
2023-04-19T11:40:46.448Z,41.23
2023-04-19T11:43:49.640Z,39.93
2023-04-19T11:47:05.108Z,43.36
2023-04-19T11:50:33.540Z,41.06
2023-04-19T11:53:36.144Z,40.12
2023-04-19T11:57:00.109Z,41.79
2023-04-19T12:00:08.690Z,40.22
2023-04-19T12:03:15.148Z,42.39
2023-04-19T12:06:23.345Z,40.33
2023-04-19T12:09:26.430Z,39.49
2023-04-19T12:12:32.608Z,40.12
2023-04-19T12:15:43.072Z,41.36
2023-04-19T12:18:50.685Z,41.58
2023-04-19T12:21:53.612Z,40.86
2023-04-19T12:24:57.680Z,40.04
2023-04-19T12:28:04.142Z,39.94
2023-04-19T12:31:06.950Z,40.30
2023-04-19T12:34:09.528Z,41.88
2023-04-19T12:37:12.589Z,41.38
2023-04-19T12:40:15.509Z,40.18
2023-04-19T12:43:18.672Z,41.52
2023-04-19T12:46:21.600Z,42.72
2023-04-19T12:49:24.646Z,45.41
2023-04-19T12:52:27.403Z,48.08
2023-04-19T12:55:30.332Z,48.34
2023-04-19T12:58:33.036Z,47.25
2023-04-19T13:01:36.783Z,47.37
2023-04-19T13:04:39.534Z,48.58
2023-04-19T13:07:42.722Z,50.00
2023-04-19T13:10:45.216Z,50.18
2023-04-19T13:13:48.156Z,50.71
2023-04-19T13:16:50.705Z,51.20
2023-04-19T13:19:53.932Z,52.26
2023-04-19T13:22:56.439Z,51.39
2023-04-19T13:25:59.401Z,52.20
2023-04-19T13:29:02.485Z,54.15
2023-04-19T13:32:07.657Z,53.75
2023-04-19T13:35:10.398Z,54.48
2023-04-19T13:38:13.363Z,56.75
2023-04-19T13:41:15.936Z,54.71
2023-04-19T13:44:19.232Z,55.08
2023-04-19T13:47:21.923Z,54.73
2023-04-19T13:50:24.865Z,55.66
2023-04-19T13:53:29.056Z,55.43
2023-04-19T13:56:32.171Z,55.08
2023-04-19T13:59:34.714Z,57.41
2023-04-19T14:02:38.219Z,57.50
2023-04-19T14:05:41.130Z,56.49
2023-04-19T14:08:44.286Z,57.93
2023-04-19T14:11:48.840Z,56.87
2023-04-19T14:14:51.518Z,58.05
2023-04-19T14:17:54.342Z,57.60
2023-04-19T14:20:56.981Z,58.61
2023-04-19T14:24:00.156Z,58.29
2023-04-19T14:27:11.241Z,57.60
2023-04-19T14:30:14.892Z,58.70
2023-04-19T14:33:20.385Z,58.98
2023-04-19T14:36:23.250Z,58.48
2023-04-19T14:39:25.759Z,58.92
2023-04-19T14:42:28.642Z,58.16
2023-04-19T14:45:31.412Z,58.24
2023-04-19T14:48:34.899Z,56.94
2023-04-19T14:51:37.501Z,57.23
2023-04-19T14:54:40.519Z,58.77
2023-04-19T14:57:43.130Z,57.58
2023-04-19T15:00:46.018Z,63.51
2023-04-19T15:03:49.282Z,64.03
2023-04-19T15:06:52.353Z,64.65
2023-04-19T15:09:55.537Z,64.48
2023-04-19T15:12:58.452Z,65.09
2023-04-19T15:16:03.423Z,64.85
2023-04-19T15:19:07.532Z,65.45
2023-04-19T15:22:10.426Z,64.31
2023-04-19T15:25:13.353Z,65.66
2023-04-19T15:28:16.002Z,65.72
2023-04-19T15:31:19.068Z,67.11
2023-04-19T15:34:21.820Z,68.09
2023-04-19T15:37:24.717Z,67.57
2023-04-19T15:40:29.151Z,68.88
2023-04-19T15:43:32.515Z,68.76
2023-04-19T15:46:35.603Z,70.67
2023-04-19T15:49:40.588Z,69.98
2023-04-19T15:52:43.060Z,69.74
2023-04-19T15:55:47.983Z,69.95
2023-04-19T15:58:50.643Z,70.19
2023-04-19T16:01:53.619Z,70.29
2023-04-19T16:04:56.579Z,70.14
2023-04-19T16:08:03.748Z,70.29
2023-04-19T16:11:06.640Z,70.81
2023-04-19T16:14:09.386Z,71.41
2023-04-19T16:17:12.310Z,72.62
2023-04-19T16:20:15.102Z,72.91
2023-04-19T16:23:18.220Z,74.99
2023-04-19T16:26:21.003Z,74.79
2023-04-19T16:29:30.362Z,73.90
2023-04-19T16:32:33.157Z,73.20
2023-04-19T16:35:36.129Z,74.14
2023-04-19T16:38:38.873Z,74.30
2023-04-19T16:41:41.846Z,73.87
2023-04-19T16:44:44.582Z,74.26
2023-04-19T16:47:48.250Z,74.06
2023-04-19T16:50:51.295Z,75.26
2023-04-19T16:53:55.170Z,76.45
2023-04-19T16:56:57.684Z,77.68
2023-04-19T17:00:00.988Z,77.25
2023-04-19T17:03:04.191Z,78.41
2023-04-19T17:06:07.891Z,78.08
2023-04-19T17:09:10.480Z,77.92
2023-04-19T17:12:13.479Z,77.97
2023-04-19T17:15:16.513Z,78.70
2023-04-19T17:18:19.449Z,78.10
2023-04-19T17:21:22.335Z,79.06
2023-04-19T17:24:26.108Z,79.31
2023-04-19T17:27:28.915Z,79.11
2023-04-19T17:30:32.226Z,78.83
2023-04-19T17:33:35.266Z,78.60
2023-04-19T17:36:38.372Z,79.75
2023-04-19T17:39:41.246Z,81.26
2023-04-19T17:42:44.261Z,82.55
2023-04-19T17:45:46.980Z,83.15
2023-04-19T17:48:50.462Z,83.74
2023-04-19T17:51:54.986Z,84.10
2023-04-19T17:54:58.124Z,83.55
2023-04-19T17:58:01.333Z,84.25
2023-04-19T18:01:04.594Z,84.93
2023-04-19T18:04:08.014Z,85.88
2023-04-19T18:07:11.439Z,86.30
2023-04-19T18:10:17.999Z,86.44
2023-04-19T18:13:20.839Z,86.33
2023-04-19T18:16:24.512Z,86.60
2023-04-19T18:19:31.121Z,86.67
2023-04-19T18:22:34.588Z,87.58
2023-04-19T18:25:37.412Z,87.48
2023-04-19T18:28:41.051Z,87.79
2023-04-19T18:31:47.887Z,88.33
2023-04-19T18:34:51.444Z,88.00
2023-04-19T18:37:54.295Z,88.05
2023-04-19T18:40:57.586Z,88.03
2023-04-19T18:44:26.273Z,87.88
2023-04-19T18:47:26.331Z,88.50
2023-04-19T18:50:30.936Z,88.86
2023-04-19T18:53:34.377Z,89.19
2023-04-19T18:59:43.299Z,89.85
2023-04-19T19:02:46.949Z,90.44
2023-04-19T19:05:53.714Z,90.78
2023-04-19T19:08:56.528Z,91.01
2023-04-19T19:12:03.081Z,91.19
2023-04-19T19:15:07.511Z,91.81
2023-04-19T19:18:10.832Z,92.87
2023-04-19T19:21:13.678Z,93.94
2023-04-19T19:24:16.747Z,95.41
2023-04-19T19:27:19.440Z,96.55
2023-04-19T19:30:23.237Z,96.87
2023-04-19T19:33:28.765Z,97.56
2023-04-19T19:36:32.410Z,97.48
2023-04-19T19:39:35.578Z,96.63
2023-04-19T19:42:41.771Z,95.27
2023-04-19T19:45:44.797Z,95.18
2023-04-19T19:48:52.615Z,96.09
2023-04-19T19:51:59.431Z,96.93
2023-04-19T19:55:02.938Z,97.63
2023-04-19T20:01:12.452Z,98.54
2023-04-19T20:04:15.967Z,99.40
2023-04-19T20:07:33.317Z,100.00
2023-04-19T20:10:43.370Z,100.00
2023-04-19T20:13:46.408Z,100.00
2023-04-19T20:16:50.481Z,100.00
2023-04-19T20:19:54.773Z,100.00
2023-04-19T20:22:58.452Z,100.00
2023-04-19T20:26:01.832Z,100.00
2023-04-19T20:29:06.004Z,100.00
2023-04-19T20:32:09.704Z,100.00
2023-04-19T20:35:13.000Z,100.00
2023-04-19T20:38:16.183Z,100.00
2023-04-19T20:41:22.132Z,100.00
2023-04-19T20:44:26.804Z,100.00
2023-04-19T20:47:30.921Z,100.00
2023-04-19T20:50:33.647Z,100.00
2023-04-19T20:53:36.822Z,100.00
2023-04-19T20:56:39.749Z,100.00
2023-04-19T20:59:42.674Z,100.00
2023-04-19T21:02:45.898Z,100.00
2023-04-19T21:05:48.901Z,100.00
2023-04-19T21:08:51.895Z,100.00
2023-04-19T21:11:55.168Z,100.00
2023-04-19T21:14:57.703Z,100.00
2023-04-19T21:18:01.131Z,100.00
2023-04-19T21:21:04.072Z,100.00
2023-04-19T21:24:08.397Z,100.00
2023-04-19T21:27:10.961Z,100.00
2023-04-19T21:30:14.010Z,100.00
2023-04-19T21:33:18.124Z,100.00
2023-04-19T21:36:21.117Z,100.00
2023-04-19T21:39:23.760Z,100.00
2023-04-19T21:42:26.539Z,100.00
2023-04-19T21:45:29.102Z,100.00
2023-04-19T21:48:32.201Z,100.00
2023-04-19T21:51:35.127Z,100.00
2023-04-19T21:54:38.257Z,100.00
2023-04-19T21:57:40.789Z,100.00
2023-04-19T22:00:44.002Z,100.00
2023-04-19T22:03:47.747Z,100.00
2023-04-19T22:06:50.598Z,100.00
2023-04-19T22:09:54.341Z,100.00
2023-04-19T22:12:58.843Z,100.00
2023-04-19T22:16:02.412Z,100.00
2023-04-19T22:19:05.180Z,100.00
2023-04-19T22:22:08.028Z,100.00
2023-04-19T22:25:11.082Z,100.00
2023-04-19T22:28:13.940Z,100.00
2023-04-19T22:31:16.621Z,100.00
2023-04-19T22:34:19.398Z,100.00
2023-04-19T22:37:22.040Z,100.00
2023-04-19T22:40:25.174Z,100.00
2023-04-19T22:43:27.694Z,100.00
2023-04-19T22:46:30.995Z,100.00
2023-04-19T22:49:33.709Z,100.00
2023-04-19T22:52:37.399Z,100.00
2023-04-19T22:55:40.547Z,100.00
2023-04-19T22:58:43.784Z,100.00
2023-04-19T23:01:47.181Z,100.00
2023-04-19T23:04:50.239Z,100.00
2023-04-19T23:07:54.849Z,100.00
2023-04-19T23:10:57.690Z,100.00
2023-04-19T23:14:00.196Z,100.00
2023-04-19T23:17:03.042Z,100.00
2023-04-19T23:20:09.460Z,100.00
2023-04-19T23:23:12.234Z,100.00
2023-04-19T23:26:14.763Z,100.00
2023-04-19T23:29:18.343Z,100.00
2023-04-19T23:32:21.436Z,100.00
2023-04-19T23:35:24.466Z,100.00
2023-04-19T23:38:27.197Z,100.00
2023-04-19T23:41:30.804Z,100.00
2023-04-19T23:44:33.452Z,100.00
2023-04-19T23:47:36.287Z,100.00
2023-04-19T23:50:38.861Z,100.00
2023-04-19T23:53:41.911Z,100.00
2023-04-19T23:56:45.448Z,100.00
2023-04-19T23:59:48.439Z,100.00
